createdAt,value
2022-11-07T00:00:33.970Z,99.99
2022-11-07T00:01:33.997Z,99.99
2022-11-07T00:02:33.987Z,99.99
2022-11-07T00:03:33.926Z,99.99
2022-11-07T00:04:33.918Z,99.99
2022-11-07T00:05:33.919Z,99.99
2022-11-07T00:06:33.935Z,99.99
2022-11-07T00:07:33.888Z,99.99
2022-11-07T00:08:33.887Z,99.99
2022-11-07T00:09:33.873Z,99.99
2022-11-07T00:10:33.898Z,99.99
2022-11-07T00:11:33.846Z,99.99
2022-11-07T00:12:33.839Z,99.99
2022-11-07T00:13:33.813Z,99.99
2022-11-07T00:14:33.805Z,99.99
2022-11-07T00:15:33.829Z,99.99
2022-11-07T00:16:33.797Z,99.99
2022-11-07T00:17:33.764Z,99.99
2022-11-07T00:18:33.767Z,99.99
2022-11-07T00:19:33.769Z,99.99
2022-11-07T00:20:33.777Z,99.99
2022-11-07T00:21:33.757Z,99.99
2022-11-07T00:22:33.722Z,99.99
2022-11-07T00:23:33.711Z,99.99
2022-11-07T00:24:33.700Z,99.99
2022-11-07T00:25:33.704Z,99.99
2022-11-07T00:26:33.673Z,99.99
2022-11-07T00:27:33.691Z,99.99
2022-11-07T00:28:33.652Z,99.99
2022-11-07T00:29:33.633Z,99.99
2022-11-07T00:30:33.662Z,99.99
2022-11-07T00:31:33.610Z,99.99
2022-11-07T00:32:33.610Z,99.99
2022-11-07T00:33:33.591Z,99.99
2022-11-07T00:34:33.575Z,99.99
2022-11-07T00:35:33.556Z,99.99
2022-11-07T00:36:33.579Z,99.99
2022-11-07T00:37:33.538Z,99.99
2022-11-07T00:38:33.537Z,99.99
2022-11-07T00:39:33.529Z,99.99
2022-11-07T00:40:33.513Z,99.99
2022-11-07T00:41:33.532Z,99.99
2022-11-07T00:42:33.485Z,99.99
2022-11-07T00:43:33.469Z,99.99
2022-11-07T00:44:33.474Z,99.99
2022-11-07T00:45:33.444Z,99.99
2022-11-07T00:46:33.473Z,99.99
2022-11-07T00:47:33.439Z,99.99
2022-11-07T00:48:33.415Z,99.99
2022-11-07T00:49:33.404Z,99.99
2022-11-07T00:50:33.380Z,99.99
2022-11-07T00:51:33.413Z,99.99
2022-11-07T00:52:33.378Z,99.99
2022-11-07T00:53:33.374Z,99.99
2022-11-07T00:54:33.359Z,99.99
2022-11-07T00:55:33.365Z,99.99
2022-11-07T00:56:33.354Z,99.99
2022-11-07T00:57:33.304Z,99.99
2022-11-07T00:58:33.315Z,99.99
2022-11-07T00:59:33.326Z,99.99
2022-11-07T01:00:33.288Z,99.99
2022-11-07T01:01:33.451Z,99.99
2022-11-07T01:02:33.393Z,99.99
2022-11-07T01:03:33.253Z,99.99
2022-11-07T01:04:33.243Z,99.99
2022-11-07T01:05:33.233Z,99.99
2022-11-07T01:06:33.247Z,99.99
2022-11-07T01:07:33.221Z,99.99
2022-11-07T01:08:33.228Z,99.99
2022-11-07T01:09:33.174Z,99.99
2022-11-07T01:10:33.168Z,99.27
2022-11-07T01:11:33.192Z,99.17
2022-11-07T01:12:33.136Z,99.07
2022-11-07T01:13:33.123Z,98.66
2022-11-07T01:14:33.108Z,98.45
2022-11-07T01:15:33.087Z,98.55
2022-11-07T01:16:33.139Z,98.71
2022-11-07T01:17:33.092Z,99.33
2022-11-07T01:18:33.075Z,98.71
2022-11-07T01:19:33.067Z,98.41
2022-11-07T01:20:33.059Z,98.41
2022-11-07T01:21:33.065Z,97.68
2022-11-07T01:22:33.038Z,97.68
2022-11-07T01:23:33.014Z,97.78
2022-11-07T01:24:33.013Z,97.99
2022-11-07T01:25:32.985Z,98.50
2022-11-07T01:26:33.005Z,98.20
2022-11-07T01:27:32.966Z,97.99
2022-11-07T01:28:32.960Z,98.15
2022-11-07T01:29:32.945Z,98.15
2022-11-07T01:30:32.960Z,97.64
2022-11-07T01:31:32.976Z,97.53
2022-11-07T01:32:32.917Z,97.02
2022-11-07T01:33:32.911Z,97.74
2022-11-07T01:34:32.897Z,96.81
2022-11-07T01:35:32.889Z,97.23
2022-11-07T01:36:32.916Z,97.13
2022-11-07T01:37:33.497Z,97.23
2022-11-07T01:38:32.868Z,97.02
2022-11-07T01:39:32.855Z,96.30
2022-11-07T01:40:32.844Z,97.18
2022-11-07T01:41:32.857Z,97.49
2022-11-07T01:42:32.826Z,97.53
2022-11-07T01:43:32.793Z,97.13
2022-11-07T01:44:32.801Z,96.36
2022-11-07T01:45:32.766Z,96.88
2022-11-07T01:46:32.826Z,96.97
2022-11-07T01:47:32.756Z,96.88
2022-11-07T01:48:32.733Z,97.13
2022-11-07T01:49:32.726Z,97.28
2022-11-07T01:50:32.703Z,97.28
2022-11-07T01:51:32.724Z,96.97
2022-11-07T01:52:32.674Z,96.88
2022-11-07T01:53:32.676Z,96.97
2022-11-07T01:54:32.669Z,96.46
2022-11-07T01:55:32.662Z,96.46
2022-11-07T01:56:32.684Z,96.97
2022-11-07T01:57:32.630Z,96.67
2022-11-07T01:58:32.632Z,96.97
2022-11-07T01:59:32.616Z,97.18
2022-11-07T02:00:32.628Z,96.97
2022-11-07T02:01:32.778Z,96.97
2022-11-07T02:02:32.738Z,96.36
2022-11-07T02:03:32.575Z,96.56
2022-11-07T02:04:32.561Z,96.00
2022-11-07T02:05:32.570Z,95.90
2022-11-07T02:06:32.569Z,95.90
2022-11-07T02:07:32.537Z,96.25
2022-11-07T02:08:32.514Z,96.56
2022-11-07T02:09:32.494Z,96.46
2022-11-07T02:10:32.488Z,96.46
2022-11-07T02:11:32.525Z,96.67
2022-11-07T02:12:32.469Z,96.31
2022-11-07T02:13:32.454Z,96.67
2022-11-07T02:14:32.453Z,96.31
2022-11-07T02:15:32.438Z,96.21
2022-11-07T02:16:32.449Z,96.52
2022-11-07T02:17:32.415Z,96.42
2022-11-07T02:18:32.401Z,95.96
2022-11-07T02:19:32.392Z,95.86
2022-11-07T02:20:32.369Z,96.06
2022-11-07T02:21:32.408Z,96.21
2022-11-07T02:22:32.356Z,96.62
2022-11-07T02:23:32.356Z,97.44
2022-11-07T02:24:32.334Z,96.83
2022-11-07T02:25:32.336Z,97.14
2022-11-07T02:26:32.323Z,97.44
2022-11-07T02:27:32.321Z,97.03
2022-11-07T02:28:32.269Z,97.44
2022-11-07T02:29:32.262Z,97.14
2022-11-07T02:30:32.247Z,96.93
2022-11-07T02:31:32.291Z,97.14
2022-11-07T02:32:32.271Z,96.83
2022-11-07T02:33:32.231Z,96.83
2022-11-07T02:34:32.210Z,96.52
2022-11-07T02:35:32.199Z,96.72
2022-11-07T02:36:32.230Z,97.14
2022-11-07T02:37:32.190Z,97.14
2022-11-07T02:38:32.169Z,97.44
2022-11-07T02:39:32.157Z,97.55
2022-11-07T02:40:32.165Z,97.34
2022-11-07T02:41:32.194Z,96.83
2022-11-07T02:42:32.132Z,96.27
2022-11-07T02:43:32.114Z,96.47
2022-11-07T02:44:32.119Z,96.17
2022-11-07T02:45:32.096Z,96.58
2022-11-07T02:46:32.075Z,96.58
2022-11-07T02:47:32.103Z,96.78
2022-11-07T02:48:32.055Z,96.68
2022-11-07T02:49:32.058Z,97.14
2022-11-07T02:50:32.032Z,96.72
2022-11-07T02:51:32.034Z,96.68
2022-11-07T02:52:32.029Z,96.83
2022-11-07T02:53:31.996Z,96.83
2022-11-07T02:54:31.983Z,97.14
2022-11-07T02:55:31.971Z,97.14
2022-11-07T02:56:31.972Z,97.14
2022-11-07T02:57:31.996Z,97.24
2022-11-07T02:58:31.930Z,97.24
2022-11-07T02:59:31.946Z,97.55
2022-11-07T03:00:31.921Z,97.55
2022-11-07T03:01:32.049Z,97.69
2022-11-07T03:02:32.107Z,97.80
2022-11-07T03:03:31.892Z,98.21
2022-11-07T03:04:31.871Z,98.21
2022-11-07T03:05:31.863Z,98.00
2022-11-07T03:06:31.838Z,97.80
2022-11-07T03:07:31.880Z,98.11
2022-11-07T03:08:31.805Z,98.11
2022-11-07T03:09:31.814Z,98.32
2022-11-07T03:10:31.800Z,98.21
2022-11-07T03:11:31.800Z,98.21
2022-11-07T03:12:31.815Z,98.11
2022-11-07T03:13:31.773Z,98.36
2022-11-07T03:14:31.838Z,98.46
2022-11-07T03:15:31.757Z,98.67
2022-11-07T03:16:31.760Z,98.97
2022-11-07T03:17:31.762Z,99.18
2022-11-07T03:18:31.703Z,99.23
2022-11-07T03:19:31.724Z,99.33
2022-11-07T03:20:31.695Z,99.64
2022-11-07T03:21:31.703Z,99.33
2022-11-07T03:22:31.694Z,99.64
2022-11-07T03:23:31.671Z,99.64
2022-11-07T03:24:31.651Z,99.99
2022-11-07T03:25:31.633Z,99.99
2022-11-07T03:26:31.640Z,99.99
2022-11-07T03:27:31.658Z,99.99
2022-11-07T03:28:31.621Z,99.99
2022-11-07T03:29:31.598Z,99.99
2022-11-07T03:30:31.578Z,99.99
2022-11-07T03:31:31.569Z,99.95
2022-11-07T03:32:31.590Z,99.85
2022-11-07T03:33:31.573Z,99.85
2022-11-07T03:34:31.535Z,99.95
2022-11-07T03:35:31.535Z,99.90
2022-11-07T03:36:31.519Z,99.99
2022-11-07T03:37:31.530Z,99.99
2022-11-07T03:38:31.493Z,99.99
2022-11-07T03:39:31.487Z,99.99
2022-11-07T03:40:31.480Z,99.99
2022-11-07T03:41:31.460Z,99.99
2022-11-07T03:42:31.463Z,99.99
2022-11-07T03:43:31.432Z,99.99
2022-11-07T03:44:31.404Z,99.99
2022-11-07T03:45:31.392Z,99.99
2022-11-07T03:46:31.399Z,99.99
2022-11-07T03:47:31.417Z,99.99
2022-11-07T03:48:31.374Z,99.99
2022-11-07T03:49:31.381Z,99.99
2022-11-07T03:50:31.344Z,99.99
2022-11-07T03:51:31.360Z,99.99
2022-11-07T03:52:31.373Z,99.99
2022-11-07T03:53:31.320Z,99.99
2022-11-07T03:54:31.330Z,99.99
2022-11-07T03:55:31.308Z,99.99
2022-11-07T03:56:31.285Z,99.99
2022-11-07T03:57:31.321Z,99.99
2022-11-07T03:58:31.272Z,99.99
2022-11-07T03:59:31.252Z,99.99
2022-11-07T04:00:31.259Z,99.99
2022-11-07T04:01:31.387Z,99.99
2022-11-07T04:02:31.317Z,99.99
2022-11-07T04:03:31.213Z,99.99
2022-11-07T04:04:31.190Z,99.99
2022-11-07T04:05:31.192Z,99.99
2022-11-07T04:06:31.177Z,99.99
2022-11-07T04:07:31.199Z,99.99
2022-11-07T04:08:31.154Z,99.99
2022-11-07T04:09:31.133Z,99.99
2022-11-07T04:10:31.130Z,99.99
2022-11-07T04:11:31.120Z,99.99
2022-11-07T04:12:31.125Z,99.99
2022-11-07T04:13:31.094Z,99.99
2022-11-07T04:14:31.065Z,99.99
2022-11-07T04:15:31.083Z,99.99
2022-11-07T04:16:31.057Z,99.99
2022-11-07T04:17:31.084Z,99.99
2022-11-07T04:18:31.027Z,99.99
2022-11-07T04:19:31.033Z,99.99
2022-11-07T04:20:31.018Z,99.99
2022-11-07T04:21:30.984Z,99.99
2022-11-07T04:22:31.002Z,99.99
2022-11-07T04:23:30.960Z,99.99
2022-11-07T04:24:30.953Z,99.99
2022-11-07T04:25:30.963Z,99.99
2022-11-07T04:26:30.952Z,99.99
2022-11-07T04:27:30.955Z,99.99
2022-11-07T04:28:30.916Z,99.99
2022-11-07T04:29:30.919Z,99.99
2022-11-07T04:30:30.892Z,99.99
2022-11-07T04:31:30.898Z,99.99
2022-11-07T04:32:30.907Z,99.99
2022-11-07T04:33:30.880Z,99.99
2022-11-07T04:34:30.854Z,99.99
2022-11-07T04:35:30.857Z,99.99
2022-11-07T04:36:30.830Z,99.99
2022-11-07T04:37:30.858Z,99.99
2022-11-07T04:38:30.794Z,99.99
2022-11-07T04:39:30.798Z,99.95
2022-11-07T04:40:30.807Z,99.95
2022-11-07T04:41:30.771Z,99.95
2022-11-07T04:42:30.804Z,99.95
2022-11-07T04:43:30.758Z,99.95
2022-11-07T04:44:30.743Z,99.64
2022-11-07T04:45:30.731Z,99.95
2022-11-07T04:46:30.697Z,99.99
2022-11-07T04:47:30.736Z,99.85
2022-11-07T04:48:30.727Z,99.95
2022-11-07T04:49:30.693Z,99.95
2022-11-07T04:50:30.672Z,99.95
2022-11-07T04:51:30.647Z,99.99
2022-11-07T04:52:30.655Z,99.74
2022-11-07T04:53:30.680Z,99.74
2022-11-07T04:54:30.630Z,99.85
2022-11-07T04:55:30.637Z,99.99
2022-11-07T04:56:34.430Z,99.99
2022-11-07T04:57:30.601Z,99.99
2022-11-07T04:58:30.605Z,99.85
2022-11-07T04:59:30.558Z,99.64
2022-11-07T05:00:30.542Z,99.39
2022-11-07T05:01:30.576Z,99.18
2022-11-07T05:02:30.596Z,99.08
2022-11-07T05:03:30.557Z,99.18
2022-11-07T05:04:30.506Z,99.23
2022-11-07T05:05:30.519Z,99.08
2022-11-07T05:06:30.485Z,99.33
2022-11-07T05:07:30.474Z,99.33
2022-11-07T05:08:30.500Z,99.43
2022-11-07T05:09:30.452Z,99.85
2022-11-07T05:10:30.449Z,99.64
2022-11-07T05:11:30.437Z,99.64
2022-11-07T05:12:30.435Z,99.74
2022-11-07T05:13:30.456Z,99.43
2022-11-07T05:14:30.395Z,99.43
2022-11-07T05:15:30.393Z,99.64
2022-11-07T05:16:30.375Z,99.74
2022-11-07T05:17:30.383Z,99.99
2022-11-07T05:18:30.430Z,99.95
2022-11-07T05:19:30.332Z,99.99
2022-11-07T05:20:30.340Z,99.99
2022-11-07T05:21:30.318Z,99.99
2022-11-07T05:22:30.324Z,99.99
2022-11-07T05:23:30.339Z,99.99
2022-11-07T05:24:30.295Z,99.99
2022-11-07T05:25:30.282Z,99.99
2022-11-07T05:26:30.284Z,99.99
2022-11-07T05:27:30.252Z,99.99
2022-11-07T05:28:37.072Z,99.99
2022-11-07T05:29:31.269Z,99.99
2022-11-07T05:30:30.207Z,99.99
2022-11-07T05:31:30.206Z,99.99
2022-11-07T05:32:30.204Z,99.99
2022-11-07T05:33:30.235Z,99.99
2022-11-07T05:34:30.228Z,99.99
2022-11-07T05:35:30.169Z,99.99
2022-11-07T05:36:30.136Z,99.99
2022-11-07T05:37:30.123Z,99.99
2022-11-07T05:38:30.129Z,99.99
2022-11-07T05:39:30.165Z,99.99
2022-11-07T05:40:30.116Z,99.99
2022-11-07T05:41:30.070Z,99.99
2022-11-07T05:42:30.082Z,99.99
2022-11-07T05:43:30.085Z,99.99
2022-11-07T05:44:30.111Z,99.99
2022-11-07T05:45:30.062Z,99.99
2022-11-07T05:46:30.034Z,99.99
2022-11-07T05:47:30.045Z,99.99
2022-11-07T05:48:30.024Z,99.99
2022-11-07T05:49:30.045Z,99.99
2022-11-07T05:50:29.991Z,99.99
2022-11-07T05:51:29.993Z,99.99
2022-11-07T05:52:29.964Z,99.90
2022-11-07T05:53:29.994Z,99.76
2022-11-07T05:54:29.977Z,99.55
2022-11-07T05:55:29.946Z,99.55
2022-11-07T05:56:29.937Z,99.65
2022-11-07T05:57:29.923Z,99.44
2022-11-07T05:58:29.911Z,99.65
2022-11-07T05:59:29.931Z,99.24
2022-11-07T06:00:29.870Z,99.24
2022-11-07T06:01:29.992Z,99.34
2022-11-07T06:02:29.966Z,99.24
2022-11-07T06:03:29.861Z,98.79
2022-11-07T06:04:29.877Z,98.06
2022-11-07T06:05:29.828Z,97.81
2022-11-07T06:06:29.827Z,97.50
2022-11-07T06:07:29.798Z,97.30
2022-11-07T06:08:29.806Z,97.50
2022-11-07T06:09:29.829Z,96.99
2022-11-07T06:10:29.787Z,96.73
2022-11-07T06:11:29.758Z,96.64
2022-11-07T06:12:29.753Z,96.64
2022-11-07T06:13:29.737Z,96.64
2022-11-07T06:14:29.744Z,96.43
2022-11-07T06:15:29.689Z,96.12
2022-11-07T06:16:29.692Z,95.50
2022-11-07T06:17:29.700Z,95.40
2022-11-07T06:18:29.709Z,95.71
2022-11-07T06:19:29.692Z,95.81
2022-11-07T06:20:29.658Z,95.92
2022-11-07T06:21:29.666Z,96.33
2022-11-07T06:22:29.639Z,96.33
2022-11-07T06:23:29.635Z,96.33
2022-11-07T06:24:29.613Z,96.02
2022-11-07T06:25:29.627Z,95.92
2022-11-07T06:26:29.589Z,95.81
2022-11-07T06:27:29.569Z,95.92
2022-11-07T06:28:29.579Z,96.22
2022-11-07T06:29:29.552Z,96.37
2022-11-07T06:30:29.593Z,96.68
2022-11-07T06:31:29.537Z,96.89
2022-11-07T06:32:29.514Z,97.44
2022-11-07T06:33:29.511Z,97.69
2022-11-07T06:34:29.503Z,98.06
2022-11-07T06:35:29.515Z,98.27
2022-11-07T06:36:29.469Z,98.62
2022-11-07T06:37:29.463Z,98.93
2022-11-07T06:38:29.459Z,98.68
2022-11-07T06:39:29.428Z,98.79
2022-11-07T06:40:29.468Z,98.79
2022-11-07T06:41:29.425Z,98.79
2022-11-07T06:42:29.419Z,98.88
2022-11-07T06:43:33.616Z,98.88
2022-11-07T06:44:29.374Z,98.88
2022-11-07T06:45:29.391Z,98.22
2022-11-07T06:46:29.363Z,98.33
2022-11-07T06:47:29.357Z,98.33
2022-11-07T06:48:29.355Z,98.22
2022-11-07T06:49:29.333Z,97.91
2022-11-07T06:50:29.335Z,97.56
2022-11-07T06:51:29.306Z,97.36
2022-11-07T06:52:29.292Z,97.36
2022-11-07T06:53:29.281Z,97.36
2022-11-07T06:54:29.281Z,97.05
2022-11-07T06:55:29.303Z,97.00
2022-11-07T06:56:29.259Z,96.69
2022-11-07T06:57:29.233Z,96.59
2022-11-07T06:58:29.220Z,96.08
2022-11-07T06:59:29.213Z,96.34
2022-11-07T07:00:29.321Z,96.23
2022-11-07T07:01:29.386Z,96.23
2022-11-07T07:02:56.777Z,96.23
2022-11-07T07:03:30.162Z,95.83
2022-11-07T07:04:29.210Z,95.62
2022-11-07T07:05:29.200Z,95.62
2022-11-07T07:06:29.118Z,95.37
2022-11-07T07:07:29.103Z,94.85
2022-11-07T07:08:29.111Z,94.65
2022-11-07T07:09:29.103Z,94.20
2022-11-07T07:10:29.121Z,94.51
2022-11-07T07:11:29.071Z,94.30
2022-11-07T07:12:29.070Z,93.89
2022-11-07T07:13:29.056Z,94.20
2022-11-07T07:14:29.060Z,93.89
2022-11-07T07:15:29.153Z,94.14
2022-11-07T07:16:29.022Z,94.51
2022-11-07T07:17:29.005Z,94.71
2022-11-07T07:18:29.023Z,94.30
2022-11-07T07:19:28.991Z,94.71
2022-11-07T07:20:29.021Z,93.99
2022-11-07T07:21:28.969Z,94.30
2022-11-07T07:22:28.960Z,94.71
2022-11-07T07:23:28.950Z,95.02
2022-11-07T07:24:28.940Z,95.12
2022-11-07T07:25:28.982Z,94.40
2022-11-07T07:26:28.929Z,94.51
2022-11-07T07:27:28.898Z,94.20
2022-11-07T07:28:28.875Z,94.20
2022-11-07T07:29:28.860Z,94.81
2022-11-07T07:30:28.882Z,94.67
2022-11-07T07:31:28.831Z,94.56
2022-11-07T07:32:28.838Z,94.67
2022-11-07T07:33:28.829Z,93.85
2022-11-07T07:34:28.820Z,94.15
2022-11-07T07:35:28.840Z,93.85
2022-11-07T07:36:28.797Z,94.05
2022-11-07T07:37:28.781Z,93.64
2022-11-07T07:38:28.785Z,93.44
2022-11-07T07:39:28.766Z,93.74
2022-11-07T07:40:28.833Z,93.33
2022-11-07T07:41:28.724Z,93.19
2022-11-07T07:42:28.749Z,93.33
2022-11-07T07:43:28.713Z,93.39
2022-11-07T07:44:28.695Z,93.29
2022-11-07T07:45:29.398Z,93.08
2022-11-07T07:46:28.681Z,93.90
2022-11-07T07:47:28.676Z,93.29
2022-11-07T07:48:28.664Z,92.78
2022-11-07T07:49:28.689Z,93.19
2022-11-07T07:50:28.782Z,93.60
2022-11-07T07:51:28.619Z,93.39
2022-11-07T07:52:28.624Z,92.47
2022-11-07T07:53:28.587Z,92.57
2022-11-07T07:54:28.598Z,92.47
2022-11-07T07:55:28.620Z,92.94
2022-11-07T07:56:28.587Z,92.53
2022-11-07T07:57:28.559Z,92.02
2022-11-07T07:58:28.522Z,91.50
2022-11-07T07:59:28.539Z,91.20
2022-11-07T08:00:28.527Z,90.95
2022-11-07T08:01:28.647Z,90.95
2022-11-07T08:02:28.543Z,90.34
2022-11-07T08:03:39.689Z,90.54
2022-11-07T08:04:29.488Z,90.50
2022-11-07T08:05:28.475Z,90.13
2022-11-07T08:06:28.496Z,90.34
2022-11-07T08:07:28.431Z,90.31
2022-11-07T08:08:30.499Z,86.43
2022-11-07T08:09:29.417Z,81.99
2022-11-07T08:10:41.384Z,79.77
2022-11-07T08:11:29.398Z,77.40
2022-11-07T08:12:28.371Z,77.47
2022-11-07T08:13:28.485Z,76.21
2022-11-07T08:14:28.372Z,75.90
2022-11-07T08:15:28.374Z,75.16
2022-11-07T08:16:28.371Z,74.34
2022-11-07T08:17:28.332Z,74.24
2022-11-07T08:18:28.320Z,76.04
2022-11-07T08:19:28.330Z,75.23
2022-11-07T08:20:28.351Z,75.63
2022-11-07T08:21:28.272Z,76.10
2022-11-07T08:22:28.266Z,76.07
2022-11-07T08:23:28.265Z,74.82
2022-11-07T08:24:28.251Z,73.70
2022-11-07T08:25:28.235Z,74.04
2022-11-07T08:26:28.258Z,74.44
2022-11-07T08:27:28.214Z,73.83
2022-11-07T08:28:28.210Z,73.87
2022-11-07T08:29:28.188Z,73.33
2022-11-07T08:30:28.186Z,73.33
2022-11-07T08:31:28.213Z,75.02
2022-11-07T08:32:28.169Z,74.41
2022-11-07T08:33:28.224Z,74.44
2022-11-07T08:34:28.155Z,75.05
2022-11-07T08:35:28.167Z,74.75
2022-11-07T08:36:29.025Z,75.22
2022-11-07T08:37:28.097Z,75.60
2022-11-07T08:38:28.115Z,75.80
2022-11-07T08:39:28.079Z,76.21
2022-11-07T08:40:28.094Z,77.47
2022-11-07T08:41:28.068Z,77.09
2022-11-07T08:42:28.068Z,78.45
2022-11-07T08:43:28.075Z,77.81
2022-11-07T08:44:28.025Z,77.09
2022-11-07T08:45:28.035Z,77.74
2022-11-07T08:46:28.011Z,78.89
2022-11-07T08:47:28.298Z,78.86
2022-11-07T08:48:27.971Z,79.27
2022-11-07T08:49:27.969Z,80.85
2022-11-07T08:50:27.981Z,77.87
2022-11-07T08:51:27.929Z,79.53
2022-11-07T08:52:27.944Z,79.37
2022-11-07T08:53:27.923Z,79.91
2022-11-07T08:54:27.939Z,80.93
2022-11-07T08:55:27.931Z,81.10
2022-11-07T08:56:27.896Z,80.18
2022-11-07T08:57:27.880Z,80.49
2022-11-07T08:58:30.178Z,80.93
2022-11-07T08:59:27.834Z,80.52
2022-11-07T09:00:27.862Z,80.11
2022-11-07T09:01:27.933Z,80.83
2022-11-07T09:03:46.580Z,79.91
2022-11-07T09:04:28.842Z,80.04
2022-11-07T09:05:27.823Z,79.33
2022-11-07T09:06:27.782Z,78.48
2022-11-07T09:07:27.763Z,78.78
2022-11-07T09:08:27.781Z,78.58
2022-11-07T09:09:27.727Z,78.92
2022-11-07T09:10:27.768Z,78.96
2022-11-07T09:11:27.716Z,80.38
2022-11-07T09:12:27.704Z,80.22
2022-11-07T09:13:27.697Z,80.52
2022-11-07T09:14:27.711Z,80.59
2022-11-07T09:15:27.735Z,79.70
2022-11-07T09:16:27.680Z,78.24
2022-11-07T09:17:27.636Z,77.12
2022-11-07T09:18:27.654Z,77.83
2022-11-07T09:19:27.600Z,77.90
2022-11-07T09:20:27.636Z,77.43
2022-11-07T09:21:27.598Z,77.33
2022-11-07T09:22:27.595Z,78.38
2022-11-07T09:23:27.569Z,79.50
2022-11-07T09:24:27.557Z,79.60
2022-11-07T09:25:27.582Z,78.68
2022-11-07T09:26:27.561Z,79.56
2022-11-07T09:27:27.544Z,77.70
2022-11-07T09:28:27.523Z,77.76
2022-11-07T09:29:27.517Z,77.12
2022-11-07T09:30:27.541Z,75.59
2022-11-07T09:31:27.478Z,75.32
2022-11-07T09:32:43.885Z,75.93
2022-11-07T09:33:28.448Z,76.85
2022-11-07T09:34:27.444Z,76.20
2022-11-07T09:35:27.453Z,76.00
2022-11-07T09:36:27.473Z,75.66
2022-11-07T09:37:27.399Z,75.62
2022-11-07T09:38:27.399Z,74.77
2022-11-07T09:39:27.409Z,74.68
2022-11-07T09:40:27.455Z,74.78
2022-11-07T09:41:27.368Z,76.58
2022-11-07T09:42:27.369Z,76.98
2022-11-07T09:43:27.354Z,77.29
2022-11-07T09:44:31.590Z,77.56
2022-11-07T09:45:28.359Z,76.34
2022-11-07T09:46:27.332Z,78.06
2022-11-07T09:47:27.307Z,77.22
2022-11-07T09:48:27.299Z,78.75
2022-11-07T09:49:27.281Z,78.44
2022-11-07T09:50:27.305Z,77.53
2022-11-07T09:51:27.258Z,77.94
2022-11-07T09:52:27.259Z,78.75
2022-11-07T09:53:27.238Z,78.41
2022-11-07T09:54:27.218Z,78.17
2022-11-07T09:55:27.228Z,77.45
2022-11-07T09:56:27.208Z,78.06
2022-11-07T09:57:27.195Z,76.95
2022-11-07T09:58:27.176Z,76.85
2022-11-07T09:59:27.202Z,77.25
2022-11-07T10:00:27.216Z,77.36
2022-11-07T10:01:27.197Z,77.01
2022-11-07T10:02:27.229Z,75.76
2022-11-07T10:03:27.126Z,74.85
2022-11-07T10:04:27.512Z,75.42
2022-11-07T10:05:27.107Z,74.88
2022-11-07T10:06:27.114Z,75.59
2022-11-07T10:07:27.081Z,74.10
2022-11-07T10:08:27.068Z,75.05
2022-11-07T10:09:27.077Z,76.57
2022-11-07T10:10:27.035Z,76.06
2022-11-07T10:11:27.044Z,75.93
2022-11-07T10:12:27.001Z,74.77
2022-11-07T10:13:26.991Z,74.37
2022-11-07T10:14:26.989Z,74.00
2022-11-07T10:15:26.997Z,75.99
2022-11-07T10:16:27.012Z,75.08
2022-11-07T10:17:26.951Z,74.88
2022-11-07T10:18:26.983Z,75.04
2022-11-07T10:19:26.941Z,73.32
2022-11-07T10:20:26.941Z,74.71
2022-11-07T10:21:42.270Z,73.96
2022-11-07T10:22:27.904Z,72.95
2022-11-07T10:23:26.901Z,73.22
2022-11-07T10:24:26.882Z,72.61
2022-11-07T10:25:26.879Z,72.81
2022-11-07T10:26:26.896Z,72.51
2022-11-07T10:27:26.868Z,71.80
2022-11-07T10:28:26.852Z,72.81
2022-11-07T10:29:26.827Z,72.68
2022-11-07T10:30:26.818Z,72.95
2022-11-07T10:31:26.842Z,72.41
2022-11-07T10:32:26.803Z,72.11
2022-11-07T10:33:26.779Z,73.32
2022-11-07T10:34:26.774Z,72.64
2022-11-07T10:35:26.776Z,71.97
2022-11-07T10:36:26.756Z,71.77
2022-11-07T10:37:26.754Z,71.40
2022-11-07T10:38:26.726Z,70.32
2022-11-07T10:39:26.721Z,68.88
2022-11-07T10:40:26.700Z,67.63
2022-11-07T10:41:26.730Z,67.20
2022-11-07T10:42:26.690Z,68.04
2022-11-07T10:43:26.695Z,68.91
2022-11-07T10:44:26.671Z,65.99
2022-11-07T10:45:26.646Z,67.33
2022-11-07T10:46:26.659Z,67.40
2022-11-07T10:47:26.611Z,69.72
2022-11-07T10:48:26.592Z,68.81
2022-11-07T10:49:26.587Z,68.54
2022-11-07T10:50:26.575Z,67.30
2022-11-07T10:51:26.614Z,66.73
2022-11-07T10:52:26.576Z,67.74
2022-11-07T10:53:26.562Z,68.27
2022-11-07T10:54:26.534Z,69.18
2022-11-07T10:55:26.553Z,69.82
2022-11-07T10:56:26.566Z,69.45
2022-11-07T10:57:26.526Z,70.22
2022-11-07T10:58:26.492Z,71.60
2022-11-07T10:59:30.095Z,70.53
2022-11-07T11:00:27.539Z,69.35
2022-11-07T11:01:26.674Z,70.22
2022-11-07T11:02:26.505Z,69.28
2022-11-07T11:03:41.904Z,67.47
2022-11-07T11:04:27.433Z,69.31
2022-11-07T11:05:26.429Z,69.31
2022-11-07T11:06:26.430Z,69.31
2022-11-07T11:07:28.617Z,71.03
2022-11-07T11:08:26.387Z,71.97
2022-11-07T11:09:26.390Z,72.31
2022-11-07T11:10:26.358Z,72.51
2022-11-07T11:11:26.386Z,71.26
2022-11-07T11:12:26.332Z,71.40
2022-11-07T11:13:26.336Z,69.18
2022-11-07T11:14:26.315Z,67.57
2022-11-07T11:15:29.972Z,66.39
2022-11-07T11:16:27.313Z,65.22
2022-11-07T11:17:26.312Z,66.20
2022-11-07T11:18:26.279Z,65.30
2022-11-07T11:19:26.258Z,63.46
2022-11-07T11:20:26.273Z,62.40
2022-11-07T11:21:26.243Z,62.17
2022-11-07T11:22:26.257Z,61.79
2022-11-07T11:23:26.213Z,65.96
2022-11-07T11:24:26.193Z,67.91
2022-11-07T11:25:26.218Z,69.28
2022-11-07T11:26:26.172Z,69.31
2022-11-07T11:27:26.145Z,70.15
2022-11-07T11:28:26.151Z,70.32
2022-11-07T11:29:26.154Z,71.03
2022-11-07T11:30:26.202Z,71.13
2022-11-07T11:31:26.113Z,71.37
2022-11-07T11:32:26.127Z,69.21
2022-11-07T11:33:26.106Z,68.95
2022-11-07T11:34:26.084Z,67.80
2022-11-07T11:35:26.133Z,68.91
2022-11-07T11:36:26.069Z,70.32
2022-11-07T11:37:26.081Z,72.11
2022-11-07T11:38:26.023Z,71.77
2022-11-07T11:39:26.053Z,71.37
2022-11-07T11:40:26.039Z,72.88
2022-11-07T11:41:26.018Z,71.47
2022-11-07T11:42:25.994Z,72.58
2022-11-07T11:43:26.003Z,74.33
2022-11-07T11:44:25.966Z,75.65
2022-11-07T11:45:26.010Z,76.09
2022-11-07T11:46:25.972Z,76.09
2022-11-07T11:47:29.198Z,74.54
2022-11-07T11:48:26.941Z,74.40
2022-11-07T11:49:25.918Z,73.76
2022-11-07T11:50:25.921Z,72.99
2022-11-07T11:51:25.942Z,72.38
2022-11-07T11:52:25.908Z,71.94
2022-11-07T11:53:25.884Z,70.89
2022-11-07T11:54:25.870Z,70.02
2022-11-07T11:55:25.872Z,67.23
2022-11-07T11:56:25.886Z,67.87
2022-11-07T11:57:25.847Z,68.88
2022-11-07T11:58:25.825Z,69.28
2022-11-07T11:59:25.820Z,69.11
2022-11-07T12:00:25.803Z,69.82
2022-11-07T12:02:26.827Z,69.98
2022-11-07T12:03:25.749Z,71.84
2022-11-07T12:04:25.734Z,71.94
2022-11-07T12:05:25.728Z,71.67
2022-11-07T12:06:25.775Z,73.32
2022-11-07T12:07:25.741Z,72.61
2022-11-07T12:08:25.739Z,73.56
2022-11-07T12:09:25.705Z,73.86
2022-11-07T12:10:25.684Z,72.95
2022-11-07T12:11:25.690Z,73.43
2022-11-07T12:12:25.650Z,71.37
2022-11-07T12:13:25.653Z,71.53
2022-11-07T12:14:25.629Z,70.89
2022-11-07T12:15:25.651Z,70.29
2022-11-07T12:16:25.641Z,70.36
2022-11-07T12:17:25.609Z,70.19
2022-11-07T12:18:25.590Z,71.00
2022-11-07T12:19:25.585Z,71.40
2022-11-07T12:20:25.578Z,70.83
2022-11-07T12:21:25.560Z,68.34
2022-11-07T12:22:25.562Z,67.63
2022-11-07T12:23:25.552Z,68.14
2022-11-07T12:24:25.514Z,68.81
2022-11-07T12:25:25.512Z,70.29
2022-11-07T12:26:25.508Z,72.58
2022-11-07T12:27:27.198Z,72.92
2022-11-07T12:28:25.480Z,73.46
2022-11-07T12:29:25.494Z,74.33
2022-11-07T12:30:25.470Z,74.63
2022-11-07T12:31:25.453Z,73.19
2022-11-07T12:32:25.471Z,71.23
2022-11-07T12:33:25.422Z,72.68
2022-11-07T12:34:25.407Z,73.66
2022-11-07T12:35:25.412Z,74.40
2022-11-07T12:36:25.399Z,74.81
2022-11-07T12:37:25.474Z,75.76
2022-11-07T12:38:25.370Z,76.46
2022-11-07T12:39:25.352Z,76.40
2022-11-07T12:40:25.334Z,76.80
2022-11-07T12:41:25.324Z,76.90
2022-11-07T12:42:25.335Z,77.45
2022-11-07T12:43:25.323Z,77.95
2022-11-07T12:44:25.305Z,78.16
2022-11-07T12:45:25.309Z,77.61
2022-11-07T12:46:25.259Z,77.07
2022-11-07T12:47:25.327Z,76.06
2022-11-07T12:48:25.253Z,76.12
2022-11-07T12:49:25.267Z,75.25
2022-11-07T12:50:25.240Z,75.65
2022-11-07T12:51:25.266Z,76.06
2022-11-07T12:52:25.215Z,76.67
2022-11-07T12:53:25.203Z,77.72
2022-11-07T12:54:25.189Z,77.21